Time;durP1;ratioP1;P1;durP2;ratioP2;P2;SDS_P1;SDS_P2;PMS_P1;PMS_P2;Temp;Humidity;BMP_temperature;BMP_pressure;BME280_temperature;BME280_humidity;BME280_pressure;Samples;Min_cycle;Max_cycle;Signal;HPM_P1;HPM_P2
2021/12/09 00:00:27;;;;;;;1.17;1.17;;;;;;;1.28;85.83;100051.97;5053000;28;20442;-73
2021/12/09 00:02:53;;;;;;;0.70;0.70;;;;;;;1.30;85.65;100049.06;5052657;28;20462;-73
2021/12/09 00:05:20;;;;;;;0.83;0.83;;;;;;;1.32;85.68;100046.94;5052800;28;20470;-73
2021/12/09 00:07:51;;;;;;;0.40;0.30;;;;;;;1.32;84.91;100050.41;5052946;28;20520;-73
2021/12/09 00:10:18;;;;;;;0.40;0.27;;;;;;;1.23;85.51;100034.06;5052773;28;20524;-73
2021/12/09 00:12:45;;;;;;;0.40;0.30;;;;;;;1.30;85.17;100023.19;5053124;28;20450;-72
2021/12/09 00:15:11;;;;;;;0.40;0.30;;;;;;;1.29;84.71;100036.78;5052818;28;20469;-72
2021/12/09 00:17:38;;;;;;;0.40;0.30;;;;;;;1.13;85.12;100033.97;5052830;28;20444;-73
2021/12/09 00:20:06;;;;;;;2.13;1.97;;;;;;;1.11;85.72;100020.09;5052831;28;20835;-72
2021/12/09 00:22:33;;;;;;;0.40;0.30;;;;;;;1.06;85.86;100022.69;5053004;28;20443;-73
2021/12/09 00:25:00;;;;;;;2.40;2.30;;;;;;;0.98;86.25;100015.16;5052763;28;20515;-73
2021/12/09 00:27:27;;;;;;;0.40;0.30;;;;;;;0.94;86.84;100012.19;5052749;28;20438;-73
2021/12/09 00:29:54;;;;;;;0.50;0.50;;;;;;;0.92;87.00;100011.63;5052645;28;20478;-73
2021/12/09 00:32:21;;;;;;;0.40;0.30;;;;;;;0.96;86.88;100009.25;5052566;28;20462;-73
2021/12/09 00:34:49;;;;;;;0.40;0.30;;;;;;;0.94;87.26;100004.19;5052610;28;20466;-73
2021/12/09 00:37:20;;;;;;;0.40;0.30;;;;;;;1.07;87.53;100008.31;5052662;28;20511;-73
2021/12/09 00:39:49;;;;;;;0.40;0.30;;;;;;;1.09;87.08;100008.84;5052430;28;20923;-73
2021/12/09 00:42:18;;;;;;;0.40;0.30;;;;;;;1.17;87.22;100013.75;5052633;28;20474;-73
2021/12/09 00:44:44;;;;;;;0.40;0.30;;;;;;;1.21;86.91;100008.72;5052498;28;20466;-73
2021/12/09 00:47:10;;;;;;;0.40;0.20;;;;;;;1.23;86.94;100012.72;5052545;28;20442;-73
2021/12/09 00:49:37;;;;;;;0.40;0.30;;;;;;;1.20;87.59;100015.91;5052473;28;20478;-73
2021/12/09 00:52:05;;;;;;;0.40;0.30;;;;;;;1.21;86.92;100011.38;5052555;28;20437;-73
2021/12/09 00:54:31;;;;;;;0.40;0.20;;;;;;;1.26;86.76;100020.22;5053160;28;20458;-73
2021/12/09 00:56:58;;;;;;;2.00;1.90;;;;;;;1.22;86.46;100011.13;5055846;28;20958;-72
2021/12/09 00:59:26;;;;;;;18.40;16.80;;;;;;;1.10;87.02;100009.66;5056040;28;20438;-73
2021/12/09 01:01:52;;;;;;;0.40;0.30;;;;;;;1.16;87.18;100011.34;5056040;28;20439;-72
2021/12/09 01:04:19;;;;;;;0.40;0.30;;;;;;;1.13;85.99;99999.28;5055566;28;20445;-73
2021/12/09 01:06:45;;;;;;;0.40;0.30;;;;;;;0.97;87.12;100005.53;5055922;28;20438;-73
2021/12/09 01:09:12;;;;;;;0.40;0.30;;;;;;;1.02;87.05;100005.63;5055865;28;20508;-73
2021/12/09 01:11:38;;;;;;;0.40;0.30;;;;;;;1.05;85.62;100010.41;5055541;28;20962;-72
2021/12/09 01:14:05;;;;;;;0.40;0.30;;;;;;;1.03;85.70;100011.75;5055795;28;20446;-73
2021/12/09 01:16:33;;;;;;;0.40;0.30;;;;;;;1.01;85.25;100019.97;5055337;28;20979;-73
2021/12/09 01:18:59;;;;;;;0.40;0.20;;;;;;;1.05;85.41;100018.41;5055700;28;20442;-73
2021/12/09 01:21:26;;;;;;;0.50;0.50;;;;;;;1.09;85.47;100019.53;5055632;28;20449;-73
2021/12/09 01:23:52;;;;;;;0.40;0.30;;;;;;;1.11;85.66;100033.44;5055635;28;20442;-72
2021/12/09 01:26:19;;;;;;;0.60;0.60;;;;;;;1.11;85.74;100029.97;5055146;28;20469;-73
2021/12/09 01:28:49;;;;;;;2.30;2.20;;;;;;;1.06;85.18;100028.03;5055457;28;20446;-73
2021/12/09 01:31:25;;;;;;;0.40;0.30;;;;;;;0.96;85.77;100036.72;5055074;28;21012;-73
2021/12/09 01:33:54;;;;;;;2.30;2.20;;;;;;;0.99;85.87;100040.75;5055479;28;20527;-73
2021/12/09 01:36:22;;;;;;;1.00;1.00;;;;;;;0.95;86.74;100037.00;5055381;28;20465;-73
2021/12/09 01:38:48;;;;;;;0.40;0.30;;;;;;;1.00;86.17;100045.84;5055486;28;20458;-73
2021/12/09 01:41:15;;;;;;;0.40;0.30;;;;;;;0.99;85.77;100041.56;5055493;28;20438;-73
2021/12/09 01:43:41;;;;;;;0.50;0.40;;;;;;;0.96;85.65;100038.59;5055253;28;20445;-73
2021/12/09 01:46:11;;;;;;;0.97;0.97;;;;;;;1.00;85.35;100040.50;5054837;28;20470;-74
2021/12/09 01:48:40;;;;;;;0.40;0.30;;;;;;;1.08;85.34;100038.47;5055174;28;20445;-74
2021/12/09 01:51:08;;;;;;;0.40;0.30;;;;;;;1.10;84.50;100039.78;5054749;28;20489;-73
2021/12/09 01:53:36;;;;;;;0.40;0.30;;;;;;;1.14;84.49;100034.78;5054747;28;20442;-73
2021/12/09 01:56:07;;;;;;;0.40;0.30;;;;;;;1.10;85.86;100028.31;5054957;28;20466;-73
2021/12/09 01:58:34;;;;;;;0.40;0.30;;;;;;;1.15;86.51;100039.03;5055011;28;20439;-73
2021/12/09 02:01:01;;;;;;;0.40;0.20;;;;;;;1.09;86.99;100029.41;5054911;28;20853;-73
2021/12/09 02:03:28;;;;;;;0.50;0.40;;;;;;;1.15;86.83;100037.22;5054876;28;20442;-73
2021/12/09 02:05:55;;;;;;;8.90;8.13;;;;;;;1.23;86.03;100031.38;5053806;28;20470;-73
2021/12/09 02:08:23;;;;;;;0.40;0.30;;;;;;;1.23;86.66;100028.72;5054661;28;20454;-73
2021/12/09 02:10:51;;;;;;;1.77;1.67;;;;;;;1.21;86.47;100020.19;5054669;28;20478;-73
2021/12/09 02:13:19;;;;;;;3.03;2.83;;;;;;;1.09;86.73;100016.84;5054893;28;20442;-73
2021/12/09 02:15:47;;;;;;;0.40;0.33;;;;;;;1.01;86.45;100017.31;5054770;28;20471;-74
2021/12/09 02:18:14;;;;;;;0.40;0.30;;;;;;;1.07;86.55;100016.31;5054223;28;20851;-73
2021/12/09 02:20:44;;;;;;;0.40;0.30;;;;;;;1.08;87.04;100015.25;5054499;28;20438;-73
2021/12/09 02:23:16;;;;;;;0.40;0.27;;;;;;;1.03;85.91;100009.88;5054555;28;20450;-73
2021/12/09 02:25:44;;;;;;;0.40;0.30;;;;;;;0.96;86.47;100017.25;5054444;28;20465;-72
2021/12/09 02:28:12;;;;;;;1.40;1.33;;;;;;;0.88;86.37;100013.19;5054428;28;20447;-73
2021/12/09 02:30:39;;;;;;;35.00;25.13;;;;;;;0.82;86.70;100002.72;5054356;28;20489;-73
2021/12/09 02:33:05;;;;;;;1.43;1.37;;;;;;;0.85;86.67;100005.69;5053988;28;20512;-72
2021/12/09 02:35:32;;;;;;;0.40;0.30;;;;;;;0.93;86.33;100004.44;5054212;28;20519;-72
2021/12/09 02:37:59;;;;;;;0.40;0.30;;;;;;;0.88;85.88;100007.84;5053934;28;20997;-73
2021/12/09 02:40:26;;;;;;;0.40;0.30;;;;;;;0.84;86.51;100014.75;5054162;28;20439;-72
2021/12/09 02:42:53;;;;;;;0.40;0.30;;;;;;;0.90;85.99;100012.94;5054140;28;20442;-73
2021/12/09 02:45:20;;;;;;;0.40;0.40;;;;;;;0.92;85.71;100018.81;5068191;22;20485;-82
2021/12/09 02:47:47;;;;;;;0.40;0.30;;;;;;;0.93;86.57;100029.25;5076504;28;20438;-83
2021/12/09 02:50:13;;;;;;;0.40;0.30;;;;;;;0.93;87.46;100029.25;5075845;28;20484;-82
2021/12/09 02:52:40;;;;;;;0.50;0.40;;;;;;;0.94;87.60;100020.19;5075622;28;20441;-81
2021/12/09 02:55:09;;;;;;;0.60;0.60;;;;;;;0.91;87.11;100026.00;5067296;22;20499;-69
2021/12/09 02:57:36;;;;;;;0.40;0.30;;;;;;;0.95;86.69;100023.66;5013793;28;20455;-70
2021/12/09 03:00:04;;;;;;;0.40;0.40;;;;;;;0.97;86.22;100019.69;5014134;28;20440;-69
2021/12/09 03:02:31;;;;;;;0.80;0.73;;;;;;;0.96;85.72;100017.25;5014119;28;20447;-69
2021/12/09 03:04:59;;;;;;;0.40;0.30;;;;;;;0.99;85.16;100024.78;5013780;28;20444;-70
2021/12/09 03:07:29;;;;;;;0.40;0.30;;;;;;;0.92;85.38;100029.47;5014025;28;20826;-70
2021/12/09 03:10:00;;;;;;;0.50;0.43;;;;;;;0.91;86.24;100027.88;5013677;28;21060;-69
2021/12/09 03:12:30;;;;;;;0.40;0.30;;;;;;;0.81;86.72;100025.13;5014018;28;20898;-71
2021/12/09 03:14:57;;;;;;;2.43;2.33;;;;;;;0.78;86.78;100021.06;5013848;28;20424;-70
2021/12/09 03:17:24;;;;;;;0.50;0.50;;;;;;;0.82;86.57;100016.84;5013597;28;20462;-69
2021/12/09 03:19:51;;;;;;;0.40;0.30;;;;;;;0.78;85.95;100015.75;5014113;28;20432;-69
2021/12/09 03:22:18;;;;;;;0.40;0.30;;;;;;;0.77;86.48;100019.47;5013460;28;20889;-70
2021/12/09 03:24:45;;;;;;;9.60;2.37;;;;;;;0.84;86.03;100013.94;5013746;28;20448;-69
2021/12/09 03:27:11;;;;;;;2.20;2.10;;;;;;;0.96;86.20;100017.25;5013497;28;20968;-68
2021/12/09 03:29:40;;;;;;;3.40;3.20;;;;;;;0.92;85.77;100016.16;5013681;28;20488;-68
2021/12/09 03:32:09;;;;;;;0.40;0.30;;;;;;;0.92;85.30;100008.97;5013919;28;20458;-70
2021/12/09 03:34:37;;;;;;;0.40;0.30;;;;;;;0.94;85.55;100014.06;5013634;28;20467;-69
2021/12/09 03:37:09;;;;;;;0.40;0.30;;;;;;;0.83;86.12;100013.13;5013538;28;20518;-69
2021/12/09 03:39:38;;;;;;;0.40;0.30;;;;;;;0.83;87.07;100012.31;5013610;28;20510;-70
2021/12/09 03:42:07;;;;;;;0.40;0.30;;;;;;;0.92;87.28;100016.97;5013546;28;20447;-70
2021/12/09 03:44:34;;;;;;;0.40;0.30;;;;;;;0.88;87.10;100020.38;5013511;28;20439;-69
2021/12/09 03:47:05;;;;;;;0.40;0.30;;;;;;;0.80;87.67;100015.47;5013091;28;20856;-68
2021/12/09 03:49:32;;;;;;;0.40;0.30;;;;;;;0.85;87.57;100018.22;5013445;28;20429;-69
2021/12/09 03:51:59;;;;;;;0.40;0.30;;;;;;;0.92;87.04;100016.16;5013726;28;20432;-69
2021/12/09 03:54:26;;;;;;;0.40;0.30;;;;;;;0.92;87.77;100014.28;5013276;28;20856;-69
2021/12/09 03:56:53;;;;;;;0.40;0.30;;;;;;;0.95;87.90;100010.31;5013160;28;21000;-70
2021/12/09 03:59:20;;;;;;;0.50;0.50;;;;;;;1.03;87.53;100020.53;5013414;28;20451;-69
2021/12/09 04:01:47;;;;;;;0.40;0.27;;;;;;;0.99;87.13;100014.91;5013070;28;20524;-71
2021/12/09 04:04:15;;;;;;;0.93;0.93;;;;;;;1.04;87.05;100011.47;5013249;28;20444;-70
2021/12/09 04:06:42;;;;;;;0.53;0.53;;;;;;;1.02;87.16;100016.28;5013253;28;20468;-69
2021/12/09 04:09:12;;;;;;;0.60;0.60;;;;;;;1.03;85.58;100017.88;5013298;28;20831;-70
2021/12/09 04:11:39;;;;;;;1.90;1.80;;;;;;;0.96;86.20;100007.41;5012931;28;21013;-71
2021/12/09 04:14:07;;;;;;;0.40;0.30;;;;;;;1.00;85.50;100010.38;5013219;28;20440;-70
2021/12/09 04:16:34;;;;;;;0.40;0.30;;;;;;;0.85;85.74;100007.56;5012931;28;21019;-68
2021/12/09 04:19:01;;;;;;;0.40;0.30;;;;;;;0.90;86.05;100007.63;5012890;28;20634;-71
2021/12/09 04:21:29;;;;;;;17.50;16.20;;;;;;;0.89;86.12;100008.69;5013182;28;20447;-74
2021/12/09 04:23:55;;;;;;;27.20;9.33;;;;;;;0.93;85.97;100015.09;5012939;28;20949;-71
2021/12/09 04:26:22;;;;;;;9.00;8.50;;;;;;;1.00;85.91;100019.16;5013211;28;20491;-73
2021/12/09 04:28:49;;;;;;;0.40;0.30;;;;;;;0.96;84.90;100023.41;5016920;28;20440;-74
2021/12/09 04:31:17;;;;;;;0.40;0.30;;;;;;;0.91;84.40;100030.53;5024006;28;20494;-73
2021/12/09 04:33:43;;;;;;;0.40;0.30;;;;;;;0.74;86.54;100026.09;5017083;28;20490;-74
2021/12/09 04:36:11;;;;;;;2.20;2.10;;;;;;;0.84;86.54;100021.94;5016841;28;20475;-73
2021/12/09 04:38:39;;;;;;;0.40;0.33;;;;;;;0.85;86.62;100028.91;5016918;28;20523;-73
2021/12/09 04:41:06;;;;;;;0.40;0.30;;;;;;;0.82;86.52;100032.06;5016873;28;20444;-74
2021/12/09 04:43:35;;;;;;;0.40;0.30;;;;;;;0.88;86.64;100031.84;5016560;28;20964;-73
2021/12/09 04:46:01;;;;;;;0.40;0.30;;;;;;;0.90;85.91;100029.75;5016584;28;20479;-73
2021/12/09 04:48:28;;;;;;;2.93;1.80;;;;;;;0.92;85.93;100024.16;5016781;28;20436;-73
2021/12/09 04:50:55;;;;;;;0.40;0.30;;;;;;;0.94;85.89;100036.19;5016556;28;20484;-74
2021/12/09 04:53:21;;;;;;;0.40;0.40;;;;;;;0.83;85.38;100037.13;5016670;28;20451;-74
2021/12/09 04:55:49;;;;;;;2.73;2.63;;;;;;;0.85;85.64;100039.56;5016176;28;20476;-73
2021/12/09 04:58:15;;;;;;;1.73;1.63;;;;;;;0.87;85.87;100045.44;5016489;28;20451;-73
2021/12/09 05:00:42;;;;;;;0.40;0.30;;;;;;;0.90;86.37;100045.75;5016409;28;20443;-73
2021/12/09 05:03:11;;;;;;;0.40;0.23;;;;;;;0.94;86.01;100056.72;5016418;28;20440;-74
2021/12/09 05:05:41;;;;;;;0.40;0.30;;;;;;;0.90;87.19;100050.28;5016281;28;20464;-73
2021/12/09 05:08:12;;;;;;;0.40;0.30;;;;;;;0.92;87.35;100050.81;5016649;28;20447;-73
2021/12/09 05:10:53;;;;;;;0.40;0.30;;;;;;;0.94;87.35;100059.38;5016331;28;20490;-74
2021/12/09 05:13:22;;;;;;;0.40;0.30;;;;;;;0.93;87.24;100057.75;5016237;28;20436;-73
2021/12/09 05:15:49;;;;;;;0.50;0.30;;;;;;;1.00;87.13;100061.84;5016056;28;20503;-73
2021/12/09 05:18:17;;;;;;;26.37;24.50;;;;;;;1.03;87.26;100071.22;5016099;28;20455;-73
2021/12/09 05:20:44;;;;;;;8.73;4.83;;;;;;;1.05;86.93;100055.75;5015982;28;20447;-72
2021/12/09 05:23:11;;;;;;;0.40;0.30;;;;;;;1.09;87.20;100056.84;5016041;28;20439;-71
2021/12/09 05:25:38;;;;;;;0.63;0.60;;;;;;;1.06;86.87;100060.03;5015884;28;20877;-71
2021/12/09 05:28:04;;;;;;;0.40;0.30;;;;;;;1.12;86.57;100059.03;5015931;28;20452;-71
2021/12/09 05:32:07;;;;;;;0.40;0.30;;;;;;;1.14;86.05;100056.91;5015451;28;21031;-70
2021/12/09 05:33:24;;;;;;;0.40;0.30;;;;;;;1.03;85.68;100060.53;5014957;28;20957;-71
2021/12/09 05:35:50;;;;;;;0.40;0.30;;;;;;;1.06;85.09;100059.22;5015378;28;20550;-70
2021/12/09 05:38:17;;;;;;;0.40;0.30;;;;;;;1.09;84.46;100061.38;5015650;28;20619;-71
2021/12/09 05:40:43;;;;;;;0.40;0.30;;;;;;;1.01;85.66;100074.09;5015712;28;20447;-69
2021/12/09 05:43:10;;;;;;;17.27;16.23;;;;;;;1.00;86.12;100077.03;5015553;28;20444;-69
2021/12/09 05:45:38;;;;;;;0.40;0.30;;;;;;;1.01;85.79;100078.63;5015449;28;20464;-71
2021/12/09 05:48:07;;;;;;;0.40;0.30;;;;;;;0.98;85.55;100079.16;5015474;28;20807;-69
2021/12/09 05:50:33;;;;;;;0.80;0.80;;;;;;;1.00;86.68;100079.69;5015395;28;20541;-70
2021/12/09 05:53:00;;;;;;;0.40;0.30;;;;;;;1.01;87.12;100084.78;5015287;28;20483;-70
2021/12/09 05:55:27;;;;;;;0.53;0.37;;;;;;;1.00;86.06;100079.69;5014869;28;20503;-70
2021/12/09 05:57:53;;;;;;;1.63;1.53;;;;;;;0.99;85.81;100070.09;5015307;28;20471;-70
2021/12/09 06:00:20;;;;;;;0.40;0.40;;;;;;;0.87;86.74;100074.75;5014951;28;20447;-69
2021/12/09 06:02:48;;;;;;;1.90;1.80;;;;;;;0.83;86.88;100076.31;5014918;28;20843;-69
2021/12/09 06:05:15;;;;;;;0.40;0.30;;;;;;;0.90;86.82;100071.59;5015030;28;20468;-69
2021/12/09 06:07:41;;;;;;;0.40;0.30;;;;;;;0.95;87.22;100072.44;5015150;28;20494;-69
2021/12/09 06:10:09;;;;;;;0.40;0.30;;;;;;;0.98;86.78;100063.16;5015126;28;20448;-70
2021/12/09 06:12:37;;;;;;;0.40;0.30;;;;;;;0.95;86.53;100060.97;5015028;28;20452;-70
2021/12/09 06:15:04;;;;;;;3.93;3.63;;;;;;;0.93;86.38;100069.25;5014891;28;20514;-69
2021/12/09 06:17:31;;;;;;;0.40;0.30;;;;;;;0.93;86.70;100068.41;5014938;28;20448;-70
2021/12/09 06:19:58;;;;;;;0.60;0.60;;;;;;;0.92;86.95;100085.47;5014925;28;20447;-69
2021/12/09 06:22:25;;;;;;;0.40;0.30;;;;;;;0.89;87.54;100102.78;5014786;28;20448;-70
2021/12/09 06:24:51;;;;;;;0.40;0.30;;;;;;;0.92;86.94;100088.94;5014688;28;20459;-71
2021/12/09 06:27:18;;;;;;;1.30;1.27;;;;;;;0.89;86.65;100081.47;5014672;28;20551;-71
2021/12/09 06:29:44;;;;;;;2.13;2.03;;;;;;;0.90;87.02;100083.06;5014682;28;20453;-71
2021/12/09 06:32:12;;;;;;;0.40;0.30;;;;;;;0.86;87.33;100086.47;5014595;28;20483;-70
2021/12/09 06:34:38;;;;;;;7.77;7.23;;;;;;;0.94;86.83;100075.38;5014615;28;20579;-71
2021/12/09 06:37:06;;;;;;;2.70;1.60;;;;;;;0.99;86.82;100067.44;5014500;28;20870;-70
2021/12/09 06:39:33;;;;;;;3.20;3.03;;;;;;;0.92;86.71;100080.13;5014543;28;20447;-70
2021/12/09 06:42:00;;;;;;;0.50;0.40;;;;;;;0.96;86.44;100060.72;5014210;28;20948;-70
2021/12/09 06:44:27;;;;;;;0.40;0.30;;;;;;;0.98;86.77;100060.50;5014636;28;20455;-70
2021/12/09 06:46:55;;;;;;;0.40;0.30;;;;;;;0.98;87.08;100063.97;5014358;28;20467;-70
2021/12/09 06:49:22;;;;;;;3.07;2.87;;;;;;;1.02;88.35;100069.59;5014378;28;20491;-70
2021/12/09 06:51:49;;;;;;;0.40;0.30;;;;;;;0.95;88.95;100059.13;5013628;28;21001;-69
2021/12/09 06:54:17;;;;;;;0.40;0.30;;;;;;;0.86;91.25;100070.47;5013997;28;20470;-71
2021/12/09 06:56:44;;;;;;;0.40;0.30;;;;;;;0.77;91.50;100079.97;5014257;28;20471;-70
2021/12/09 06:59:10;;;;;;;50.30;26.60;;;;;;;0.68;92.66;100071.59;5014080;28;20836;-70
2021/12/09 07:01:38;;;;;;;8.53;7.90;;;;;;;0.78;92.13;100084.25;5013983;28;20817;-72
2021/12/09 07:04:05;;;;;;;0.40;0.30;;;;;;;0.78;92.35;100079.72;5014156;28;20450;-70
2021/12/09 07:06:31;;;;;;;1.03;1.03;;;;;;;0.80;92.55;100069.63;5013682;28;20510;-72
2021/12/09 07:09:00;;;;;;;0.40;0.30;;;;;;;0.84;93.42;100080.56;5014137;28;20444;-69
2021/12/09 07:11:29;;;;;;;47.07;40.77;;;;;;;0.84;95.15;100076.06;5013928;28;20495;-69
2021/12/09 07:13:55;;;;;;;3.10;2.90;;;;;;;0.81;95.90;100094.41;5013970;28;20555;-67
2021/12/09 07:16:22;;;;;;;0.40;0.30;;;;;;;0.84;96.03;100093.91;5013831;28;20475;-68
2021/12/09 07:18:49;;;;;;;2.57;2.47;;;;;;;0.86;96.31;100087.28;5013583;28;20447;-70
2021/12/09 07:21:15;;;;;;;0.40;0.30;;;;;;;0.90;96.10;100079.59;5013796;28;20455;-71
2021/12/09 07:23:42;;;;;;;0.50;0.40;;;;;;;0.88;96.28;100087.81;5013190;28;20983;-70
2021/12/09 07:26:09;;;;;;;29.23;26.73;;;;;;;0.82;97.10;100085.38;5013126;28;20479;-70
2021/12/09 07:28:37;;;;;;;0.40;0.30;;;;;;;0.88;96.87;100087.03;5013471;28;20862;-70
2021/12/09 07:31:03;;;;;;;1.43;1.40;;;;;;;0.86;97.41;100087.28;5013283;28;21022;-69
2021/12/09 07:33:30;;;;;;;0.40;0.27;;;;;;;0.89;97.88;100080.66;5013046;28;20872;-70
2021/12/09 07:35:56;;;;;;;0.60;0.60;;;;;;;0.89;97.36;100092.13;5012936;28;20492;-69
2021/12/09 07:38:23;;;;;;;0.40;0.30;;;;;;;0.91;96.55;100084.66;5013223;28;20459;-70
2021/12/09 07:40:50;;;;;;;0.40;0.30;;;;;;;0.77;96.30;100093.31;5013175;28;20440;-69
2021/12/09 07:43:16;;;;;;;0.40;0.30;;;;;;;0.79;95.28;100094.66;5013130;28;20938;-70
2021/12/09 07:45:44;;;;;;;0.40;0.30;;;;;;;0.65;96.19;100098.75;5013481;28;20515;-70
2021/12/09 07:48:11;;;;;;;0.40;0.30;;;;;;;0.61;96.60;100101.09;5013502;28;20440;-70
2021/12/09 07:50:38;;;;;;;0.40;0.30;;;;;;;0.67;96.20;100086.78;5013416;28;20440;-69
2021/12/09 07:53:05;;;;;;;0.40;0.30;;;;;;;0.64;96.31;100073.97;5013330;28;20488;-70
2021/12/09 07:55:31;;;;;;;0.40;0.30;;;;;;;0.65;96.31;100096.88;5013166;28;20494;-69
2021/12/09 07:57:58;;;;;;;0.50;0.50;;;;;;;0.63;97.31;100115.00;5013425;28;20448;-69
2021/12/09 08:00:28;;;;;;;0.50;0.30;;;;;;;0.61;96.98;100114.41;5013360;28;20530;-69
2021/12/09 08:02:57;;;;;;;6.20;4.27;;;;;;;0.66;96.29;100114.47;5013719;28;20470;-70
2021/12/09 08:05:25;;;;;;;0.40;0.30;;;;;;;0.60;96.68;100123.47;5015533;28;20465;-71
2021/12/09 08:07:51;;;;;;;28.60;9.60;;;;;;;0.57;97.40;100118.63;5017431;28;20486;-71
2021/12/09 08:10:19;;;;;;;0.40;0.30;;;;;;;0.63;96.96;100120.31;5017241;28;20458;-69
2021/12/09 08:12:46;;;;;;;0.60;0.60;;;;;;;0.64;96.80;100129.91;5017181;28;20486;-69
2021/12/09 08:15:14;;;;;;;0.40;0.30;;;;;;;0.64;96.91;100134.44;5017194;28;20464;-70
2021/12/09 08:20:22;;;;;;;1.90;1.80;;;;;;;0.59;98.89;100129.06;4984180;28;20817;-69
2021/12/09 08:22:48;;;;;;;0.40;0.30;;;;;;;0.68;99.09;100148.91;5017106;28;20447;-69
2021/12/09 08:25:15;;;;;;;0.40;0.37;;;;;;;0.65;98.46;100141.38;5017346;28;20503;-70
2021/12/09 08:27:44;;;;;;;5.73;5.20;;;;;;;0.58;98.33;100128.25;5017053;28;20447;-69
2021/12/09 08:30:12;;;;;;;0.40;0.30;;;;;;;0.58;98.75;100122.91;5016921;28;20803;-68
2021/12/09 08:32:38;;;;;;;1.90;1.80;;;;;;;0.64;97.97;100115.78;5016724;28;20487;-71
2021/12/09 08:35:06;;;;;;;0.40;0.30;;;;;;;0.63;97.72;100100.88;5016878;28;20460;-71
2021/12/09 08:37:34;;;;;;;2.40;2.30;;;;;;;0.65;97.87;100094.22;5016857;28;20447;-71
2021/12/09 08:40:01;;;;;;;0.40;0.30;;;;;;;0.73;98.79;100098.31;5017093;28;20442;-72
2021/12/09 08:42:27;;;;;;;0.40;0.30;;;;;;;0.73;99.37;100093.00;5016848;28;20460;-71
2021/12/09 08:44:55;;;;;;;0.40;0.30;;;;;;;0.79;99.30;100093.84;5016644;28;20447;-71
2021/12/09 08:47:21;;;;;;;0.40;0.30;;;;;;;0.82;99.64;100107.50;5017997;28;20464;-70
2021/12/09 08:49:48;;;;;;;0.40;0.30;;;;;;;0.88;99.67;100106.47;5016652;28;20444;-69
2021/12/09 08:52:15;;;;;;;0.40;0.30;;;;;;;0.85;99.98;100108.88;5016782;28;20492;-71
2021/12/09 08:54:43;;;;;;;0.60;0.60;;;;;;;0.90;100.00;100108.91;5016014;28;20814;-70
2021/12/09 08:57:10;;;;;;;3.13;2.83;;;;;;;0.84;99.96;100120.56;5016556;28;20424;-71
2021/12/09 08:59:37;;;;;;;0.40;0.30;;;;;;;0.82;99.93;100141.34;5016158;28;20941;-70
2021/12/09 09:02:04;;;;;;;0.97;0.97;;;;;;;0.81;100.00;100126.41;5016434;28;20440;-71
2021/12/09 09:04:31;;;;;;;0.50;0.30;;;;;;;0.86;100.00;100089.16;5016230;28;20448;-71
2021/12/09 09:07:00;;;;;;;0.40;0.30;;;;;;;0.93;100.00;100085.25;5015920;28;20467;-70
2021/12/09 09:09:32;;;;;;;0.40;0.30;;;;;;;0.87;100.00;100101.41;5015981;28;20448;-71
2021/12/09 09:12:00;;;;;;;0.40;0.30;;;;;;;0.92;100.00;100112.13;5015874;28;20969;-70
2021/12/09 09:14:27;;;;;;;0.40;0.30;;;;;;;0.96;100.00;100110.59;5016124;28;20444;-71
2021/12/09 09:16:53;;;;;;;65.07;19.90;;;;;;;0.99;100.00;100091.44;5015226;28;21135;-70
2021/12/09 09:19:20;;;;;;;7.67;7.20;;;;;;;1.09;100.00;100080.88;5015994;28;20439;-70
2021/12/09 09:21:47;;;;;;;0.73;0.73;;;;;;;1.09;100.00;100102.19;5015995;28;20447;-70
2021/12/09 09:24:13;;;;;;;0.40;0.30;;;;;;;1.09;99.91;100101.41;5015944;28;20460;-69
2021/12/09 09:26:41;;;;;;;0.40;0.30;;;;;;;1.09;100.00;100112.88;5015848;28;20506;-71
2021/12/09 09:29:10;;;;;;;0.60;0.60;;;;;;;1.07;100.00;100125.66;5015862;28;20515;-71
2021/12/09 09:31:39;;;;;;;0.90;0.90;;;;;;;1.13;99.96;100132.66;5015731;28;20491;-69
2021/12/09 09:34:06;;;;;;;0.40;0.30;;;;;;;1.16;100.00;100118.81;5015739;28;20494;-69
2021/12/09 09:36:39;;;;;;;0.40;0.30;;;;;;;1.16;100.00;100102.81;5015647;28;20468;-69
2021/12/09 09:39:16;;;;;;;0.40;0.30;;;;;;;1.16;99.85;100102.81;5015682;28;20464;-70
2021/12/09 09:41:45;;;;;;;0.40;0.30;;;;;;;1.10;99.35;100114.47;5015628;28;20432;-69
2021/12/09 09:44:16;;;;;;;0.40;0.30;;;;;;;1.10;99.52;100097.66;5015787;28;20471;-69
2021/12/09 09:46:44;;;;;;;0.40;0.30;;;;;;;1.11;99.25;100094.78;5015801;28;20518;-69
2021/12/09 09:49:11;;;;;;;0.40;0.20;;;;;;;1.15;98.70;100095.88;5015619;28;20455;-70
2021/12/09 09:51:38;;;;;;;0.40;0.30;;;;;;;1.10;98.44;100098.47;5015331;28;20494;-69
2021/12/09 09:54:06;;;;;;;0.40;0.30;;;;;;;1.04;98.61;100099.47;5015289;28;20432;-70
2021/12/09 09:56:34;;;;;;;0.40;0.30;;;;;;;1.09;99.18;100101.41;5014814;28;21031;-69
2021/12/09 09:59:04;;;;;;;1.43;1.33;;;;;;;1.17;99.51;100098.28;5015322;28;20483;-70
2021/12/09 10:01:36;;;;;;;0.40;0.30;;;;;;;1.07;100.00;100093.66;5015440;28;20448;-69
2021/12/09 10:04:12;;;;;;;0.40;0.30;;;;;;;1.18;100.00;100095.34;5015573;28;20431;-70
2021/12/09 10:06:42;;;;;;;0.40;0.20;;;;;;;1.27;100.00;100101.06;5015098;28;20897;-69
2021/12/09 10:09:11;;;;;;;0.40;0.30;;;;;;;1.22;98.79;100093.81;5015226;28;20432;-69
2021/12/09 10:11:39;;;;;;;0.40;0.30;;;;;;;1.29;98.61;100095.47;5015127;28;20440;-69
2021/12/09 10:14:10;;;;;;;0.40;0.30;;;;;;;1.26;97.93;100097.56;5015027;28;20483;-70
2021/12/09 10:16:41;;;;;;;0.40;0.30;;;;;;;1.22;97.49;100090.34;5015257;28;20456;-72
2021/12/09 10:19:19;;;;;;;0.40;0.20;;;;;;;1.22;97.51;100101.00;5015059;28;20460;-69
2021/12/09 10:21:47;;;;;;;0.40;0.40;;;;;;;1.22;97.76;100101.81;5015126;28;20423;-69
2021/12/09 10:24:13;;;;;;;0.40;0.30;;;;;;;1.23;97.43;100090.06;5014908;28;20448;-69
2021/12/09 10:26:42;;;;;;;0.40;0.30;;;;;;;1.14;97.62;100086.25;5014144;28;20472;-70
2021/12/09 10:29:12;;;;;;;0.40;0.30;;;;;;;1.10;97.70;100098.47;5014369;28;20444;-70
2021/12/09 10:31:48;;;;;;;1.53;1.43;;;;;;;1.15;98.09;100095.88;5015044;28;20471;-69
2021/12/09 10:34:26;;;;;;;0.40;0.30;;;;;;;1.16;97.98;100097.50;5014339;28;20442;-69
2021/12/09 10:36:57;;;;;;;0.40;0.30;;;;;;;1.15;98.37;100100.38;5014554;28;20517;-70
2021/12/09 10:39:28;;;;;;;20.83;19.03;;;;;;;1.13;97.84;100103.31;5014709;28;20416;-69
2021/12/09 10:41:56;;;;;;;0.40;0.30;;;;;;;1.10;98.10;100109.13;5014589;28;20428;-69
2021/12/09 10:44:45;;;;;;;0.40;0.30;;;;;;;1.08;97.88;100111.25;5014562;28;20453;-69
2021/12/09 10:47:22;;;;;;;22.33;20.60;;;;;;;1.14;98.11;100104.13;5014506;28;20528;-69
2021/12/09 10:50:03;;;;;;;0.40;0.30;;;;;;;1.13;97.87;100103.31;5014415;28;20432;-68
2021/12/09 10:52:38;;;;;;;0.40;0.30;;;;;;;1.19;97.53;100114.84;5014311;28;20837;-71
2021/12/09 10:55:09;;;;;;;0.40;0.30;;;;;;;1.16;97.01;100102.03;5014117;28;20475;-70
2021/12/09 10:57:36;;;;;;;0.40;0.30;;;;;;;1.16;97.02;100096.69;5014284;28;20436;-69
2021/12/09 11:00:17;;;;;;;0.40;0.30;;;;;;;1.15;97.10;100092.38;5014347;28;20451;-70
2021/12/09 11:03:03;;;;;;;0.40;0.30;;;;;;;1.09;97.39;100088.88;5015004;28;20428;-70
2021/12/09 11:05:33;;;;;;;0.40;0.30;;;;;;;1.17;97.72;100083.09;5016415;28;20958;-70
2021/12/09 11:08:14;;;;;;;0.40;0.30;;;;;;;1.17;97.46;100072.41;5015321;28;20871;-69
2021/12/09 11:10:46;;;;;;;0.40;0.30;;;;;;;1.19;97.30;100058.81;5013975;28;20428;-71
2021/12/09 11:13:13;;;;;;;0.83;0.83;;;;;;;1.24;97.51;100053.56;5014037;28;20523;-71
2021/12/09 11:15:52;;;;;;;0.67;0.67;;;;;;;1.33;97.69;100053.88;5014079;28;20493;-70
2021/12/09 11:18:36;;;;;;;12.83;9.63;;;;;;;1.36;98.08;100059.53;5014016;28;20443;-70
2021/12/09 11:21:06;;;;;;;0.40;0.30;;;;;;;1.37;98.81;100071.00;5013949;28;20439;-70
2021/12/09 11:23:37;;;;;;;13.90;13.10;;;;;;;1.45;98.39;100070.53;5013568;28;20518;-70
2021/12/09 11:26:25;;;;;;;0.40;0.30;;;;;;;1.41;97.35;100066.75;5013477;28;21009;-70
2021/12/09 11:28:57;;;;;;;0.40;0.30;;;;;;;1.33;97.22;100061.88;5013818;28;20527;-71
2021/12/09 11:31:27;;;;;;;0.50;0.40;;;;;;;1.38;97.29;100049.41;5013671;28;20440;-70
2021/12/09 11:34:01;;;;;;;0.40;0.30;;;;;;;1.35;96.64;100052.56;5013161;28;20484;-71
2021/12/09 11:36:47;;;;;;;1.47;1.37;;;;;;;1.36;95.84;100042.72;4994013;28;20464;-70
2021/12/09 11:39:20;;;;;;;1.43;1.33;;;;;;;1.40;96.13;100046.47;4997105;28;20480;-70